createdAt,value
2023-01-05T00:01:12.090Z,9.90
2023-01-05T00:05:16.199Z,9.90
2023-01-05T00:09:21.004Z,9.80
2023-01-05T00:13:43.733Z,9.90
2023-01-05T00:18:06.573Z,9.80
2023-01-05T00:22:31.723Z,9.90
2023-01-05T00:26:36.024Z,9.90
2023-01-05T05:33:15.024Z,9.60
2023-01-05T05:37:19.126Z,9.60
2023-01-05T05:41:23.086Z,9.60
2023-01-05T05:45:27.109Z,9.70
2023-01-05T05:49:31.008Z,9.60
2023-01-05T05:53:34.915Z,9.70
2023-01-05T05:57:38.810Z,9.70
2023-01-05T06:01:42.688Z,9.70
2023-01-05T06:05:46.575Z,9.70
2023-01-05T06:09:50.445Z,9.70
2023-01-05T06:13:54.428Z,9.70
2023-01-05T06:17:58.200Z,9.60
2023-01-05T06:22:01.966Z,9.60
2023-01-05T06:26:05.958Z,9.70
2023-01-05T06:30:10.384Z,9.60
2023-01-05T06:34:14.167Z,9.60
2023-01-05T06:38:18.973Z,9.60
2023-01-05T06:42:23.680Z,9.70
2023-01-05T06:46:28.054Z,9.70
2023-01-05T06:50:32.488Z,9.70
2023-01-05T06:54:36.116Z,9.70
2023-01-05T06:58:39.807Z,9.70
2023-01-05T07:02:43.948Z,9.70
2023-01-05T07:06:48.089Z,9.70
2023-01-05T07:10:52.037Z,9.80
2023-01-05T07:14:57.737Z,9.80
2023-01-05T07:19:02.028Z,9.80
2023-01-05T07:23:05.977Z,9.90
2023-01-05T07:27:10.255Z,9.90
2023-01-05T07:31:14.413Z,9.90
2023-01-05T07:35:18.388Z,10.00
2023-01-05T07:39:22.479Z,10.00
2023-01-05T07:43:26.648Z,9.90
2023-01-05T07:47:31.567Z,10.00
2023-01-05T07:51:36.038Z,10.00
2023-01-05T07:55:39.649Z,10.10
2023-01-05T07:59:43.487Z,10.20
2023-01-05T08:03:47.615Z,10.30
2023-01-05T08:07:51.614Z,10.40
2023-01-05T08:11:55.477Z,10.50
2023-01-05T08:16:03.295Z,10.50
2023-01-05T08:20:08.188Z,10.50
2023-01-05T08:24:12.006Z,10.50
2023-01-05T08:28:16.138Z,10.60
2023-01-05T08:32:20.337Z,10.60
2023-01-05T08:36:24.988Z,10.70
2023-01-05T08:40:29.431Z,10.90
2023-01-05T08:44:33.358Z,11.00
2023-01-05T08:48:37.288Z,11.20
2023-01-05T08:52:42.096Z,11.30
2023-01-05T08:56:45.991Z,11.30
2023-01-05T09:00:50.897Z,11.40
2023-01-05T09:04:54.946Z,11.50
2023-01-05T09:08:58.739Z,11.60
2023-01-05T09:13:02.558Z,11.70
2023-01-05T09:17:07.685Z,11.80
2023-01-05T09:21:12.806Z,11.90
2023-01-05T09:25:16.770Z,12.10
2023-01-05T09:29:20.535Z,12.40
2023-01-05T09:33:25.398Z,12.60
2023-01-05T09:37:31.261Z,12.80
2023-01-05T09:41:46.157Z,13.00
2023-01-05T09:45:51.122Z,13.10
2023-01-05T09:49:57.212Z,13.00
2023-01-05T09:54:02.566Z,12.90
2023-01-05T09:58:13.099Z,12.60
2023-01-05T10:02:52.373Z,12.70
2023-01-05T10:07:07.744Z,12.90
2023-01-05T10:11:36.708Z,13.00
2023-01-05T10:15:47.352Z,13.10
2023-01-05T10:19:51.730Z,13.40
2023-01-05T10:24:11.915Z,13.50
2023-01-05T10:28:38.269Z,13.80
2023-01-05T10:33:25.875Z,14.00
2023-01-05T10:37:35.695Z,14.00
2023-01-05T10:41:45.919Z,14.10
2023-01-05T10:46:20.406Z,14.20
2023-01-05T10:50:40.938Z,14.10
2023-01-05T10:55:03.478Z,14.10
2023-01-05T10:59:12.915Z,14.20
2023-01-05T11:03:22.540Z,14.20
2023-01-05T11:07:50.228Z,14.20
2023-01-05T11:11:56.154Z,14.20
2023-01-05T11:16:22.892Z,14.30
2023-01-05T11:20:29.864Z,14.40
2023-01-05T11:24:37.479Z,14.40
2023-01-05T11:29:01.389Z,14.50
2023-01-05T11:33:17.238Z,14.50
2023-01-05T11:37:25.308Z,14.60
2023-01-05T11:41:29.260Z,14.70
2023-01-05T11:45:40.679Z,14.80
2023-01-05T11:49:44.580Z,14.90
2023-01-05T11:53:49.119Z,14.90
2023-01-05T11:58:00.076Z,14.90
2023-01-05T12:02:50.731Z,15.00
2023-01-05T12:07:12.060Z,14.90
2023-01-05T12:11:26.382Z,15.00
2023-01-05T12:15:45.782Z,15.00
2023-01-05T12:19:57.568Z,14.80
2023-01-05T12:24:13.883Z,14.80
2023-01-05T12:28:42.330Z,14.70
2023-01-05T12:37:57.266Z,14.40
2023-01-05T12:42:24.029Z,14.00
2023-01-05T12:46:52.735Z,13.80
2023-01-05T12:51:23.529Z,13.70
2023-01-05T12:55:37.180Z,13.90
2023-01-05T12:59:56.197Z,14.00
2023-01-05T13:04:06.042Z,14.20
2023-01-05T13:08:19.280Z,14.40
2023-01-05T13:12:24.195Z,14.50
2023-01-05T13:16:40.761Z,14.50
2023-01-05T13:20:54.319Z,14.40
2023-01-05T13:25:07.620Z,14.40
2023-01-05T13:29:35.477Z,14.40
2023-01-05T13:33:48.231Z,14.30
2023-01-05T13:37:58.410Z,14.30
2023-01-05T13:42:22.400Z,14.30
2023-01-05T13:46:50.973Z,14.30
2023-01-05T13:51:16.391Z,14.20
2023-01-05T13:55:26.125Z,14.30
2023-01-05T13:59:43.954Z,14.20
2023-01-05T14:03:57.522Z,14.20
2023-01-05T14:08:05.337Z,14.20
2023-01-05T14:12:09.206Z,14.20
2023-01-05T14:16:41.689Z,14.20
2023-01-05T14:20:57.173Z,14.20
2023-01-05T14:25:20.788Z,14.20
2023-01-05T14:33:58.560Z,14.20
2023-01-05T14:38:06.290Z,14.00
2023-01-05T14:42:36.459Z,13.80
2023-01-05T14:46:58.876Z,13.80
2023-01-05T14:51:21.333Z,13.60
2023-01-05T14:55:45.197Z,13.50
2023-01-05T14:59:50.537Z,13.50
2023-01-05T15:04:13.337Z,13.40
2023-01-05T15:08:42.300Z,13.10
2023-01-05T15:12:52.988Z,13.00
2023-01-05T15:17:27.466Z,12.70
2023-01-05T15:21:40.675Z,12.40
2023-01-05T15:26:21.718Z,12.00
2023-01-05T15:30:37.302Z,11.60
2023-01-05T15:35:10.241Z,11.40
2023-01-05T15:39:32.470Z,11.00
2023-01-05T15:43:40.035Z,10.70
2023-01-05T15:47:44.385Z,10.50
2023-01-05T15:51:53.821Z,10.20
2023-01-05T15:55:58.539Z,10.00
2023-01-05T16:00:15.780Z,9.90
2023-01-05T16:04:20.247Z,9.70
2023-01-05T16:08:24.909Z,9.70
2023-01-05T16:12:29.555Z,9.60
2023-01-05T16:16:53.219Z,9.50
2023-01-05T16:20:59.729Z,9.40
2023-01-05T16:25:29.519Z,9.20
2023-01-05T16:29:42.012Z,9.00
2023-01-05T16:33:48.040Z,9.00
2023-01-05T16:38:25.558Z,8.90
2023-01-05T16:42:43.019Z,8.90
2023-01-05T16:47:04.633Z,8.80
2023-01-05T16:51:21.997Z,8.70
2023-01-05T16:55:40.722Z,8.60
2023-01-05T16:59:50.681Z,8.50
2023-01-05T17:03:55.132Z,8.40
2023-01-05T17:08:30.188Z,8.20
2023-01-05T17:12:35.908Z,8.00
2023-01-05T17:16:39.727Z,7.90
2023-01-05T17:20:47.388Z,7.90
2023-01-05T17:24:53.234Z,7.80
2023-01-05T17:33:08.451Z,7.80
2023-01-05T17:37:17.941Z,7.80
2023-01-05T17:41:22.603Z,7.70
2023-01-05T17:45:30.489Z,7.60
2023-01-05T17:49:36.897Z,7.50
2023-01-05T17:53:41.748Z,7.30
2023-01-05T17:57:46.015Z,7.20
2023-01-05T18:01:49.950Z,7.00
2023-01-05T18:05:54.525Z,6.90
2023-01-05T18:09:59.208Z,7.00
2023-01-05T18:14:03.877Z,6.90
2023-01-05T18:18:07.909Z,6.80
2023-01-05T18:22:12.404Z,6.70
2023-01-05T18:26:16.242Z,6.60
2023-01-05T18:30:21.063Z,6.50
2023-01-05T18:34:27.036Z,6.50
2023-01-05T18:38:30.857Z,6.50
2023-01-05T18:42:38.342Z,6.50
2023-01-05T18:46:42.498Z,6.70
2023-01-05T18:50:51.356Z,6.90
2023-01-05T18:54:59.772Z,7.10
2023-01-05T18:59:04.944Z,7.30
2023-01-05T19:03:10.771Z,7.50
2023-01-05T19:07:14.802Z,7.60
2023-01-05T19:11:24.741Z,7.80
2023-01-05T19:15:28.624Z,7.90
2023-01-05T19:19:33.354Z,7.90
2023-01-05T19:23:37.212Z,8.00
2023-01-05T19:27:43.652Z,8.10
2023-01-05T19:31:49.435Z,8.10
2023-01-05T19:36:05.879Z,8.20
2023-01-05T19:40:11.270Z,8.30
2023-01-05T19:44:17.684Z,8.40
2023-01-05T19:48:21.751Z,8.40
2023-01-05T19:52:29.989Z,8.40
2023-01-05T19:56:37.967Z,8.50
2023-01-05T20:00:42.036Z,8.50
2023-01-05T20:04:50.544Z,8.60
2023-01-05T20:08:58.936Z,8.60
2023-01-05T20:13:02.771Z,8.50
2023-01-05T20:17:10.387Z,8.60
2023-01-05T20:21:17.734Z,8.60
2023-01-05T20:25:21.681Z,8.60
2023-01-05T20:29:27.147Z,8.60
2023-01-05T20:33:31.696Z,8.70
2023-01-05T20:37:35.787Z,8.60
2023-01-05T20:41:42.593Z,8.70
2023-01-05T20:45:47.416Z,8.70
2023-01-05T20:49:51.417Z,8.70
2023-01-05T20:53:57.448Z,8.70
2023-01-05T20:58:01.489Z,8.70
2023-01-05T21:02:22.322Z,8.80
2023-01-05T21:06:28.687Z,8.80
2023-01-05T21:10:33.631Z,8.90
2023-01-05T21:14:40.702Z,8.90
2023-01-05T21:18:46.061Z,8.90
2023-01-05T21:22:50.089Z,8.90
2023-01-05T21:26:58.036Z,8.90
2023-01-05T21:31:05.400Z,8.90
2023-01-05T21:35:12.977Z,9.00
2023-01-05T21:39:24.917Z,8.90
2023-01-05T21:43:29.810Z,8.90
2023-01-05T21:47:37.148Z,8.90
2023-01-05T21:52:01.071Z,8.90
2023-01-05T21:56:27.877Z,8.90
2023-01-05T22:00:38.761Z,8.90
2023-01-05T22:04:44.239Z,9.00
2023-01-05T22:08:50.131Z,8.90
2023-01-05T22:12:55.657Z,8.90
2023-01-05T22:16:59.858Z,8.90
2023-01-05T22:21:08.989Z,8.80
2023-01-05T22:25:12.939Z,8.80
2023-01-05T22:29:17.229Z,8.80
2023-01-05T22:33:21.531Z,8.80
2023-01-05T22:37:25.708Z,8.80
2023-01-05T22:41:31.569Z,8.80
2023-01-05T22:45:46.349Z,8.80
2023-01-05T22:49:50.264Z,8.70
2023-01-05T22:53:54.720Z,8.70
2023-01-05T22:57:58.609Z,8.50
2023-01-05T23:02:02.635Z,8.40
2023-01-05T23:06:07.245Z,8.30
2023-01-05T23:10:11.238Z,8.30
2023-01-05T23:14:17.812Z,8.30
2023-01-05T23:18:21.967Z,8.40
2023-01-05T23:22:25.725Z,8.40
2023-01-05T23:26:30.006Z,8.40
2023-01-05T23:30:33.849Z,8.40
2023-01-05T23:34:39.458Z,8.30
2023-01-05T23:38:44.697Z,8.30
2023-01-05T23:42:49.391Z,8.40
2023-01-05T23:46:53.389Z,8.40
2023-01-05T23:50:58.101Z,8.40
2023-01-05T23:55:02.211Z,8.50
2023-01-05T23:59:08.141Z,8.60
